EPKK/KRK METAR and TAF weather

Enter ICAO airport designator
Station Type Date Time Source
EPKK METAR 2018/01/19 23:00 UTC NOAA

EPKK 192300Z VRB02KT 1800 BR OVC040 M01/M02 Q1010


Station Type Date Time Source
EPKK Decoded METAR 2018/01/19 23:00 UTC NOAA

Krakow, Poland (EPKK) 50-05N 019-48E 237M
Jan 19, 2018 - 06:00 PM EST / 2018.01.19 2300 UTC
Wind: Variable at 2 MPH (2 KT):0
Visibility: 1 mile(s):0
Sky conditions: overcast
Weather: mist
Temperature: 30 F (-1 C)
Dew Point: 28 F (-2 C)
Relative Humidity: 92%
Pressure (altimeter): 29.83 in. Hg (1010 hPa)
ob: EPKK 192300Z VRB02KT 1800 BR OVC040 M01/M02 Q1010
cycle: 23

Station Type Date Time Source
EPKK TAF 2018/01/19 18:33 UTC NOAA

TAF EPKK 191730Z 1918/2018 VRB02KT 9999 SCT040 PROB40
TEMPO 1920/1924 3000 BR
TEMPO 2000/2007 2000 BR BKN004
TEMPO 2013/2018 4000 -SN BKN010


Example: see airport list